DAL1329 KPHL-KATL
Flight info
| Callsign | DAL1329 |
|---|---|
| Flight time | 1h 44m |
| Altitude | 34000 |
| Route | STOEN REEFI EMI J48 MOL FLASK OZZZI2 |
| Aircraft | A321/M-SDE3FGHIRWY/LB1 |
Departure
| Time | 2026-05-04 23:51 |
|---|---|
| Airport | Philadelphia International Airport (KPHL) |
Arrival
| Time | 2026-05-05 01:36 |
|---|---|
| Airport | Hartsfield Jackson Atlanta International Airport (KATL) |
| Time | Latitude | Longitude | Altitude | Speed | Heading |
|---|---|---|---|---|---|
| 2026-05-04 22:31 | 39.87487 | -75.23795 | 17 ft | 0 kts | 355° |
| 2026-05-04 23:39 | 39.87476 | -75.23792 | 17 ft | 2 kts | 332° |
| 2026-05-04 23:40 | 39.87464 | -75.23780 | 17 ft | 2 kts | 307° |
| 2026-05-04 23:40 | 39.87458 | -75.23762 | 17 ft | 2 kts | 280° |
| 2026-05-04 23:40 | 39.87458 | -75.23743 | 17 ft | 2 kts | 254° |
| 2026-05-04 23:40 | 39.87465 | -75.23726 | 17 ft | 2 kts | 228° |
| 2026-05-04 23:41 | 39.87475 | -75.23713 | 17 ft | 1 kts | 226° |
| 2026-05-04 23:41 | 39.87478 | -75.23709 | 17 ft | 0 kts | 228° |
| 2026-05-04 23:45 | 39.87463 | -75.23727 | 17 ft | 7 kts | 219° |
| 2026-05-04 23:45 | 39.87420 | -75.23795 | 17 ft | 10 kts | 246° |
| 2026-05-04 23:45 | 39.87379 | -75.23871 | 17 ft | 10 kts | 201° |
| 2026-05-04 23:46 | 39.87309 | -75.23840 | 17 ft | 11 kts | 148° |
| 2026-05-04 23:46 | 39.87233 | -75.23801 | 18 ft | 12 kts | 165° |
| 2026-05-04 23:46 | 39.87139 | -75.23769 | 18 ft | 14 kts | 166° |
| 2026-05-04 23:46 | 39.87040 | -75.23737 | 18 ft | 14 kts | 167° |
| 2026-05-04 23:47 | 39.86969 | -75.23677 | 18 ft | 12 kts | 99° |
| 2026-05-04 23:47 | 39.86986 | -75.23566 | 18 ft | 12 kts | 75° |
| 2026-05-04 23:47 | 39.87006 | -75.23469 | 18 ft | 7 kts | 83° |
| 2026-05-04 23:47 | 39.86999 | -75.23439 | 18 ft | 0 kts | 135° |
| 2026-05-04 23:50 | 39.86999 | -75.23438 | 18 ft | 0 kts | 135° |
| 2026-05-04 23:50 | 39.86966 | -75.23415 | 18 ft | 10 kts | 161° |
| 2026-05-04 23:50 | 39.86901 | -75.23438 | 18 ft | 11 kts | 237° |
| 2026-05-04 23:50 | 39.86874 | -75.23553 | 18 ft | 23 kts | 256° |
| 2026-05-04 23:51 | 39.86759 | -75.24130 | 19 ft | 107 kts | 255° |
| 2026-05-04 23:51 | 39.86508 | -75.25382 | 25 ft | 175 kts | 252° |
| 2026-05-04 23:51 | 39.86179 | -75.27020 | 621 ft | 190 kts | 252° |
| 2026-05-04 23:51 | 39.85875 | -75.28692 | 1481 ft | 198 kts | 254° |
| 2026-05-04 23:52 | 39.85711 | -75.29883 | 2067 ft | 201 kts | 258° |
| 2026-05-04 23:52 | 39.85644 | -75.32204 | 3116 ft | 192 kts | 268° |
| 2026-05-04 23:52 | 39.85717 | -75.33877 | 3814 ft | 186 kts | 268° |
| 2026-05-04 23:52 | 39.85748 | -75.35532 | 4467 ft | 180 kts | 265° |
| 2026-05-04 23:53 | 39.85695 | -75.37125 | 5067 ft | 177 kts | 264° |
| 2026-05-04 23:53 | 39.85650 | -75.38701 | 5609 ft | 178 kts | 266° |
| 2026-05-04 23:53 | 39.85627 | -75.40363 | 5977 ft | 190 kts | 268° |
| 2026-05-04 23:53 | 39.85621 | -75.42117 | 6430 ft | 198 kts | 269° |
| 2026-05-04 23:54 | 39.85594 | -75.43926 | 6898 ft | 207 kts | 265° |
| 2026-05-04 23:54 | 39.85492 | -75.45856 | 7215 ft | 223 kts | 266° |
| 2026-05-04 23:54 | 39.85394 | -75.47965 | 7535 ft | 240 kts | 267° |
| 2026-05-04 23:54 | 39.85291 | -75.50193 | 7904 ft | 254 kts | 267° |
| 2026-05-04 23:55 | 39.85182 | -75.52486 | 8508 ft | 258 kts | 268° |
| 2026-05-04 23:55 | 39.85071 | -75.54785 | 9205 ft | 258 kts | 268° |
| 2026-05-04 23:55 | 39.84847 | -75.59435 | 10445 ft | 263 kts | 268° |
| 2026-05-04 23:56 | 39.84730 | -75.61886 | 10722 ft | 279 kts | 268° |
| 2026-05-04 23:56 | 39.84605 | -75.64452 | 11028 ft | 293 kts | 268° |
| 2026-05-04 23:56 | 39.84473 | -75.67132 | 11358 ft | 304 kts | 268° |
| 2026-05-04 23:56 | 39.84333 | -75.69937 | 11924 ft | 308 kts | 267° |
| 2026-05-04 23:57 | 39.84195 | -75.72693 | 12497 ft | 311 kts | 267° |
| 2026-05-04 23:57 | 39.84052 | -75.75496 | 13028 ft | 314 kts | 267° |
| 2026-05-04 23:57 | 39.83907 | -75.78326 | 13608 ft | 317 kts | 266° |
| 2026-05-04 23:57 | 39.83675 | -75.81181 | 14183 ft | 321 kts | 263° |
| 2026-05-04 23:58 | 39.83352 | -75.84090 | 14740 ft | 324 kts | 263° |
| 2026-05-04 23:58 | 39.83026 | -75.86968 | 15244 ft | 327 kts | 263° |
| 2026-05-04 23:58 | 39.82803 | -75.88930 | 15587 ft | 329 kts | 263° |
| 2026-05-04 23:58 | 39.82353 | -75.92868 | 16292 ft | 332 kts | 263° |
| 2026-05-04 23:59 | 39.82014 | -75.95840 | 16800 ft | 334 kts | 263° |
| 2026-05-04 23:59 | 39.81674 | -75.98801 | 17276 ft | 338 kts | 263° |
| 2026-05-04 23:59 | 39.81325 | -76.01827 | 17718 ft | 340 kts | 263° |
| 2026-05-04 23:59 | 39.80974 | -76.04874 | 18205 ft | 343 kts | 263° |
| 2026-05-05 00:00 | 39.80631 | -76.07848 | 18634 ft | 346 kts | 263° |
| 2026-05-05 00:00 | 39.80512 | -76.08873 | 18775 ft | 347 kts | 263° |
| 2026-05-05 00:00 | 39.79908 | -76.14063 | 19496 ft | 352 kts | 262° |
| 2026-05-05 00:00 | 39.79377 | -76.17175 | 19926 ft | 356 kts | 256° |
| 2026-05-05 00:01 | 39.78585 | -76.20214 | 20356 ft | 359 kts | 250° |
| 2026-05-05 00:01 | 39.77551 | -76.23202 | 20786 ft | 362 kts | 247° |
| 2026-05-05 00:01 | 39.76461 | -76.26150 | 21202 ft | 365 kts | 246° |
| 2026-05-05 00:01 | 39.75353 | -76.29121 | 21573 ft | 368 kts | 246° |
| 2026-05-05 00:02 | 39.74235 | -76.32117 | 21974 ft | 370 kts | 246° |
| 2026-05-05 00:02 | 39.73113 | -76.35121 | 22399 ft | 372 kts | 247° |
| 2026-05-05 00:02 | 39.71993 | -76.38123 | 22805 ft | 374 kts | 247° |
| 2026-05-05 00:02 | 39.70846 | -76.41195 | 23203 ft | 376 kts | 247° |
| 2026-05-05 00:03 | 39.69707 | -76.44247 | 23594 ft | 378 kts | 247° |
| 2026-05-05 00:03 | 39.68945 | -76.46289 | 23840 ft | 379 kts | 247° |
| 2026-05-05 00:03 | 39.67416 | -76.50375 | 24329 ft | 383 kts | 247° |
| 2026-05-05 00:03 | 39.66248 | -76.53495 | 24684 ft | 385 kts | 247° |
| 2026-05-05 00:04 | 39.65081 | -76.56611 | 25037 ft | 387 kts | 247° |
| 2026-05-05 00:04 | 39.63894 | -76.59772 | 25379 ft | 390 kts | 247° |
| 2026-05-05 00:04 | 39.63111 | -76.61857 | 25599 ft | 391 kts | 247° |
| 2026-05-05 00:04 | 39.61517 | -76.66097 | 26047 ft | 394 kts | 246° |
| 2026-05-05 00:05 | 39.60710 | -76.68243 | 26268 ft | 396 kts | 246° |
| 2026-05-05 00:05 | 39.59495 | -76.71469 | 26572 ft | 398 kts | 246° |
| 2026-05-05 00:05 | 39.57870 | -76.75776 | 26981 ft | 401 kts | 246° |
| 2026-05-05 00:05 | 39.56653 | -76.78996 | 27290 ft | 403 kts | 246° |
| 2026-05-05 00:06 | 39.55412 | -76.82279 | 27591 ft | 405 kts | 246° |
| 2026-05-05 00:06 | 39.54161 | -76.85583 | 27875 ft | 408 kts | 246° |
| 2026-05-05 00:06 | 39.53341 | -76.87747 | 28060 ft | 409 kts | 246° |
| 2026-05-05 00:06 | 39.51667 | -76.92153 | 28425 ft | 412 kts | 245° |
| 2026-05-05 00:07 | 39.50204 | -76.95407 | 28683 ft | 416 kts | 238° |
| 2026-05-05 00:07 | 39.48449 | -76.98388 | 28933 ft | 421 kts | 231° |
| 2026-05-05 00:07 | 39.46388 | -77.01111 | 29179 ft | 425 kts | 224° |
| 2026-05-05 00:07 | 39.44141 | -77.03566 | 29440 ft | 428 kts | 222° |
| 2026-05-05 00:08 | 39.42605 | -77.05184 | 29605 ft | 429 kts | 221° |
| 2026-05-05 00:08 | 39.39497 | -77.08431 | 29964 ft | 431 kts | 221° |
| 2026-05-05 00:08 | 39.37177 | -77.10854 | 30221 ft | 432 kts | 221° |
| 2026-05-05 00:08 | 39.34848 | -77.13289 | 30487 ft | 432 kts | 221° |
| 2026-05-05 00:09 | 39.32486 | -77.15762 | 30808 ft | 431 kts | 222° |
| 2026-05-05 00:09 | 39.30950 | -77.17367 | 31014 ft | 431 kts | 222° |
| 2026-05-05 00:09 | 39.27840 | -77.20621 | 31394 ft | 430 kts | 222° |
| 2026-05-05 00:09 | 39.25522 | -77.23045 | 31647 ft | 430 kts | 222° |
| 2026-05-05 00:10 | 39.23205 | -77.25466 | 31905 ft | 429 kts | 223° |
| 2026-05-05 00:10 | 39.20888 | -77.27887 | 32147 ft | 429 kts | 223° |
| 2026-05-05 00:10 | 39.18568 | -77.30310 | 32367 ft | 430 kts | 223° |
| 2026-05-05 00:10 | 39.16246 | -77.32733 | 32569 ft | 431 kts | 223° |
| 2026-05-05 00:11 | 39.13931 | -77.35146 | 32756 ft | 432 kts | 223° |
| 2026-05-05 00:11 | 39.12358 | -77.36784 | 32882 ft | 432 kts | 223° |
| 2026-05-05 00:11 | 39.09249 | -77.40019 | 33130 ft | 433 kts | 223° |
| 2026-05-05 00:11 | 39.06897 | -77.42464 | 33317 ft | 434 kts | 223° |
| 2026-05-05 00:12 | 39.05320 | -77.44101 | 33437 ft | 434 kts | 223° |
| 2026-05-05 00:12 | 39.02961 | -77.46551 | 33614 ft | 435 kts | 223° |
| 2026-05-05 00:12 | 38.99814 | -77.49812 | 33837 ft | 436 kts | 223° |
| 2026-05-05 00:13 | 38.95033 | -77.54765 | 33888 ft | 445 kts | 223° |
| 2026-05-05 00:13 | 38.90171 | -77.59789 | 33890 ft | 452 kts | 223° |
| 2026-05-05 00:14 | 38.85260 | -77.64851 | 33894 ft | 453 kts | 223° |
| 2026-05-05 00:14 | 38.81167 | -77.69064 | 33896 ft | 452 kts | 222° |
| 2026-05-05 00:15 | 38.75443 | -77.74946 | 33902 ft | 452 kts | 222° |
| 2026-05-05 00:15 | 38.70549 | -77.79964 | 33907 ft | 452 kts | 222° |
| 2026-05-05 00:16 | 38.65827 | -77.85190 | 33907 ft | 448 kts | 227° |
| 2026-05-05 00:16 | 38.61592 | -77.91000 | 33911 ft | 445 kts | 234° |
| 2026-05-05 00:17 | 38.57836 | -77.97240 | 33914 ft | 443 kts | 237° |
| 2026-05-05 00:17 | 38.54139 | -78.03540 | 33908 ft | 443 kts | 237° |
| 2026-05-05 00:18 | 38.50435 | -78.09836 | 33907 ft | 443 kts | 237° |
| 2026-05-05 00:18 | 38.46753 | -78.16078 | 33908 ft | 442 kts | 237° |
| 2026-05-05 00:19 | 38.43066 | -78.22315 | 33910 ft | 441 kts | 237° |
| 2026-05-05 00:19 | 38.39357 | -78.28576 | 33913 ft | 440 kts | 237° |
| 2026-05-05 00:20 | 38.36299 | -78.33730 | 33916 ft | 440 kts | 237° |
| 2026-05-05 00:20 | 38.31993 | -78.40974 | 33921 ft | 439 kts | 237° |
| 2026-05-05 00:21 | 38.28900 | -78.46166 | 33923 ft | 439 kts | 237° |
| 2026-05-05 00:21 | 38.24611 | -78.53353 | 33926 ft | 439 kts | 237° |
| 2026-05-05 00:22 | 38.20928 | -78.59514 | 33929 ft | 438 kts | 237° |
| 2026-05-05 00:22 | 38.17262 | -78.65633 | 33939 ft | 438 kts | 236° |
| 2026-05-05 00:23 | 38.14176 | -78.70774 | 33942 ft | 437 kts | 236° |
| 2026-05-05 00:23 | 38.09878 | -78.77921 | 33946 ft | 436 kts | 237° |
| 2026-05-05 00:24 | 38.06191 | -78.84040 | 33946 ft | 437 kts | 237° |
| 2026-05-05 00:24 | 38.02493 | -78.90169 | 33947 ft | 437 kts | 237° |
| 2026-05-05 00:25 | 37.98804 | -78.96268 | 33951 ft | 437 kts | 237° |
| 2026-05-05 00:25 | 37.95094 | -79.02389 | 33957 ft | 437 kts | 237° |
| 2026-05-05 00:26 | 37.92039 | -79.07420 | 33959 ft | 435 kts | 237° |
| 2026-05-05 00:26 | 37.87479 | -79.14279 | 33965 ft | 437 kts | 232° |
| 2026-05-05 00:27 | 37.84073 | -79.19031 | 33966 ft | 436 kts | 232° |
| 2026-05-05 00:27 | 37.80101 | -79.24557 | 33977 ft | 436 kts | 232° |
| 2026-05-05 00:28 | 37.76027 | -79.30217 | 33980 ft | 436 kts | 232° |
| 2026-05-05 00:28 | 37.71955 | -79.35864 | 33975 ft | 437 kts | 232° |
| 2026-05-05 00:29 | 37.67879 | -79.41505 | 33974 ft | 435 kts | 232° |
| 2026-05-05 00:29 | 37.63128 | -79.48068 | 33975 ft | 435 kts | 232° |
| 2026-05-05 00:30 | 37.59061 | -79.53676 | 33986 ft | 434 kts | 232° |
| 2026-05-05 00:30 | 37.54980 | -79.59290 | 33987 ft | 433 kts | 232° |
| 2026-05-05 00:31 | 37.51594 | -79.63944 | 33985 ft | 433 kts | 232° |
| 2026-05-05 00:31 | 37.47544 | -79.69502 | 33980 ft | 433 kts | 232° |
| 2026-05-05 00:32 | 37.43549 | -79.74976 | 33968 ft | 431 kts | 232° |
| 2026-05-05 00:32 | 37.38813 | -79.81448 | 33972 ft | 430 kts | 232° |
| 2026-05-05 00:33 | 37.34775 | -79.86957 | 33982 ft | 430 kts | 232° |
| 2026-05-05 00:33 | 37.30729 | -79.92468 | 33983 ft | 429 kts | 232° |
| 2026-05-05 00:34 | 37.26702 | -79.97942 | 33979 ft | 429 kts | 232° |
| 2026-05-05 00:34 | 37.22654 | -80.03440 | 33980 ft | 428 kts | 232° |
| 2026-05-05 00:35 | 37.18633 | -80.08893 | 33976 ft | 427 kts | 231° |
| 2026-05-05 00:35 | 37.14582 | -80.14371 | 33981 ft | 427 kts | 231° |
| 2026-05-05 00:36 | 37.11218 | -80.18913 | 33987 ft | 426 kts | 231° |
| 2026-05-05 00:36 | 37.06520 | -80.25246 | 34001 ft | 425 kts | 232° |
| 2026-05-05 00:37 | 37.03138 | -80.29796 | 33998 ft | 426 kts | 232° |
| 2026-05-05 00:37 | 36.98367 | -80.36053 | 34006 ft | 427 kts | 230° |
| 2026-05-05 00:38 | 36.94212 | -80.41352 | 34003 ft | 426 kts | 230° |
| 2026-05-05 00:38 | 36.90094 | -80.46606 | 34007 ft | 426 kts | 231° |
| 2026-05-05 00:39 | 36.86638 | -80.51014 | 34011 ft | 425 kts | 230° |
| 2026-05-05 00:39 | 36.82560 | -80.56212 | 34013 ft | 424 kts | 230° |
| 2026-05-05 00:40 | 36.77741 | -80.62342 | 34017 ft | 423 kts | 230° |
| 2026-05-05 00:40 | 36.73975 | -80.67126 | 34022 ft | 424 kts | 230° |
| 2026-05-05 00:41 | 36.69808 | -80.72409 | 34029 ft | 424 kts | 230° |
| 2026-05-05 00:41 | 36.66489 | -80.76613 | 34021 ft | 424 kts | 230° |
| 2026-05-05 00:42 | 36.61657 | -80.82726 | 34017 ft | 425 kts | 230° |
| 2026-05-05 00:42 | 36.57503 | -80.87968 | 34027 ft | 425 kts | 230° |
| 2026-05-05 00:43 | 36.53360 | -80.93188 | 34033 ft | 425 kts | 230° |
| 2026-05-05 00:43 | 36.49225 | -80.98391 | 34030 ft | 425 kts | 230° |
| 2026-05-05 00:44 | 36.45755 | -81.02749 | 34031 ft | 425 kts | 230° |
| 2026-05-05 00:44 | 36.40903 | -81.08833 | 34029 ft | 425 kts | 230° |
| 2026-05-05 00:45 | 36.36754 | -81.14027 | 34028 ft | 426 kts | 230° |
| 2026-05-05 00:45 | 36.32585 | -81.19235 | 34027 ft | 425 kts | 230° |
| 2026-05-05 00:46 | 36.28425 | -81.24440 | 34029 ft | 425 kts | 230° |
| 2026-05-05 00:46 | 36.24962 | -81.28765 | 34025 ft | 425 kts | 230° |
| 2026-05-05 00:47 | 36.20114 | -81.34811 | 34027 ft | 424 kts | 230° |
| 2026-05-05 00:47 | 36.15966 | -81.39973 | 34024 ft | 424 kts | 230° |
| 2026-05-05 00:48 | 36.11802 | -81.45149 | 34028 ft | 425 kts | 230° |
| 2026-05-05 00:48 | 36.07631 | -81.50321 | 34028 ft | 425 kts | 230° |
| 2026-05-05 00:49 | 36.03464 | -81.55482 | 34027 ft | 424 kts | 229° |
| 2026-05-05 00:49 | 35.99311 | -81.60616 | 34026 ft | 425 kts | 229° |
| 2026-05-05 00:50 | 35.95128 | -81.65778 | 34031 ft | 425 kts | 229° |
| 2026-05-05 00:50 | 35.91638 | -81.70079 | 34027 ft | 425 kts | 229° |
| 2026-05-05 00:51 | 35.87468 | -81.75211 | 34027 ft | 425 kts | 229° |
| 2026-05-05 00:51 | 35.82551 | -81.81252 | 34025 ft | 424 kts | 229° |
| 2026-05-05 00:52 | 35.79084 | -81.85503 | 34026 ft | 424 kts | 229° |
| 2026-05-05 00:52 | 35.74146 | -81.91440 | 34027 ft | 425 kts | 228° |
| 2026-05-05 00:53 | 35.69923 | -81.96486 | 34025 ft | 425 kts | 228° |
| 2026-05-05 00:53 | 35.65677 | -82.01559 | 34020 ft | 425 kts | 228° |
| 2026-05-05 00:54 | 35.61436 | -82.06616 | 34029 ft | 425 kts | 228° |
| 2026-05-05 00:54 | 35.57892 | -82.10838 | 34037 ft | 425 kts | 228° |
| 2026-05-05 00:55 | 35.52952 | -82.16713 | 34036 ft | 425 kts | 228° |
| 2026-05-05 00:55 | 35.48708 | -82.21752 | 34041 ft | 425 kts | 228° |
| 2026-05-05 00:56 | 35.44473 | -82.26771 | 34042 ft | 424 kts | 228° |
| 2026-05-05 00:56 | 35.40281 | -82.31825 | 34039 ft | 424 kts | 229° |
| 2026-05-05 00:57 | 35.36173 | -82.36959 | 34040 ft | 424 kts | 229° |
| 2026-05-05 00:57 | 35.32731 | -82.41251 | 34038 ft | 424 kts | 229° |
| 2026-05-05 00:58 | 35.28585 | -82.46397 | 34044 ft | 425 kts | 229° |
| 2026-05-05 00:58 | 35.23739 | -82.52396 | 34039 ft | 425 kts | 229° |
| 2026-05-05 00:59 | 35.19587 | -82.57523 | 34044 ft | 426 kts | 229° |
| 2026-05-05 00:59 | 35.15404 | -82.62672 | 34045 ft | 426 kts | 229° |
| 2026-05-05 01:00 | 35.11900 | -82.66852 | 34041 ft | 426 kts | 227° |
| 2026-05-05 01:00 | 35.07733 | -82.71786 | 34032 ft | 427 kts | 227° |
| 2026-05-05 01:00 | 35.04928 | -82.75101 | 34033 ft | 411 kts | 227° |
| 2026-05-05 01:01 | 35.03665 | -82.76594 | 34031 ft | 406 kts | 227° |
| 2026-05-05 01:01 | 34.98922 | -82.82209 | 34033 ft | 400 kts | 227° |
| 2026-05-05 01:02 | 34.95628 | -82.86103 | 33958 ft | 398 kts | 228° |
| 2026-05-05 01:02 | 34.93632 | -82.88463 | 33444 ft | 395 kts | 227° |
| 2026-05-05 01:02 | 34.91014 | -82.91509 | 32821 ft | 390 kts | 227° |
| 2026-05-05 01:02 | 34.89688 | -82.93044 | 32463 ft | 389 kts | 227° |
| 2026-05-05 01:03 | 34.87751 | -82.95281 | 31929 ft | 386 kts | 227° |
| 2026-05-05 01:03 | 34.85807 | -82.97531 | 31388 ft | 384 kts | 227° |
| 2026-05-05 01:03 | 34.83875 | -82.99764 | 30843 ft | 382 kts | 227° |
| 2026-05-05 01:03 | 34.82050 | -83.01873 | 30347 ft | 379 kts | 227° |
| 2026-05-05 01:04 | 34.80145 | -83.04073 | 29821 ft | 377 kts | 227° |
| 2026-05-05 01:04 | 34.76353 | -83.08450 | 28830 ft | 372 kts | 227° |
| 2026-05-05 01:04 | 34.74491 | -83.10598 | 28335 ft | 369 kts | 227° |
| 2026-05-05 01:05 | 34.72448 | -83.12953 | 27798 ft | 366 kts | 227° |
| 2026-05-05 01:05 | 34.71199 | -83.14394 | 27451 ft | 365 kts | 227° |
| 2026-05-05 01:05 | 34.69348 | -83.16525 | 26910 ft | 364 kts | 227° |
| 2026-05-05 01:05 | 34.66928 | -83.19307 | 26295 ft | 360 kts | 227° |
| 2026-05-05 01:06 | 34.65105 | -83.21402 | 25823 ft | 357 kts | 227° |
| 2026-05-05 01:06 | 34.63309 | -83.23463 | 25430 ft | 355 kts | 227° |
| 2026-05-05 01:06 | 34.62797 | -83.24051 | 25310 ft | 354 kts | 227° |
| 2026-05-05 01:14 | 34.62003 | -83.24963 | 25127 ft | 354 kts | 227° |
| 2026-05-05 01:14 | 34.59618 | -83.27696 | 24578 ft | 351 kts | 227° |
| 2026-05-05 01:15 | 34.57860 | -83.29709 | 24185 ft | 348 kts | 227° |
| 2026-05-05 01:15 | 34.56106 | -83.31719 | 23795 ft | 346 kts | 227° |
| 2026-05-05 01:15 | 34.54371 | -83.33713 | 23413 ft | 344 kts | 227° |
| 2026-05-05 01:15 | 34.53226 | -83.35033 | 23152 ft | 342 kts | 227° |
| 2026-05-05 01:16 | 34.50937 | -83.37669 | 22625 ft | 340 kts | 227° |
| 2026-05-05 01:16 | 34.49228 | -83.39635 | 22238 ft | 338 kts | 227° |
| 2026-05-05 01:16 | 34.48077 | -83.40956 | 21976 ft | 336 kts | 227° |
| 2026-05-05 01:16 | 34.45831 | -83.43536 | 21463 ft | 334 kts | 227° |
| 2026-05-05 01:17 | 34.44171 | -83.45441 | 21077 ft | 332 kts | 227° |
| 2026-05-05 01:17 | 34.42481 | -83.47379 | 20689 ft | 330 kts | 227° |
| 2026-05-05 01:17 | 34.40845 | -83.49255 | 20317 ft | 328 kts | 226° |
| 2026-05-05 01:17 | 34.39194 | -83.51148 | 19934 ft | 326 kts | 226° |
| 2026-05-05 01:18 | 34.37555 | -83.53024 | 19560 ft | 324 kts | 226° |
| 2026-05-05 01:18 | 34.36459 | -83.54277 | 19309 ft | 322 kts | 226° |
| 2026-05-05 01:18 | 34.34310 | -83.56735 | 18805 ft | 320 kts | 226° |
| 2026-05-05 01:18 | 34.32684 | -83.58591 | 18410 ft | 318 kts | 226° |
| 2026-05-05 01:19 | 34.31075 | -83.60428 | 18036 ft | 316 kts | 226° |
| 2026-05-05 01:19 | 34.29491 | -83.62235 | 17657 ft | 315 kts | 226° |
| 2026-05-05 01:19 | 34.28421 | -83.63438 | 17403 ft | 314 kts | 225° |
| 2026-05-05 01:19 | 34.26786 | -83.65195 | 17026 ft | 313 kts | 223° |
| 2026-05-05 01:20 | 34.24627 | -83.67481 | 16523 ft | 311 kts | 223° |
| 2026-05-05 01:20 | 34.23547 | -83.68623 | 16269 ft | 309 kts | 223° |
| 2026-05-05 01:20 | 34.21965 | -83.70300 | 15906 ft | 309 kts | 223° |
| 2026-05-05 01:20 | 34.20357 | -83.72006 | 15531 ft | 307 kts | 223° |
| 2026-05-05 01:21 | 34.18759 | -83.73702 | 15157 ft | 306 kts | 223° |
| 2026-05-05 01:21 | 34.16636 | -83.75955 | 14654 ft | 305 kts | 223° |
| 2026-05-05 01:21 | 34.15033 | -83.77657 | 14268 ft | 304 kts | 223° |
| 2026-05-05 01:21 | 34.13991 | -83.78763 | 14020 ft | 303 kts | 223° |
| 2026-05-05 01:22 | 34.11876 | -83.81006 | 13519 ft | 301 kts | 223° |
| 2026-05-05 01:22 | 34.10845 | -83.82101 | 13280 ft | 300 kts | 223° |
| 2026-05-05 01:22 | 34.09268 | -83.83775 | 12906 ft | 300 kts | 222° |
| 2026-05-05 01:22 | 34.07712 | -83.85442 | 12539 ft | 298 kts | 223° |
| 2026-05-05 01:23 | 34.05734 | -83.87569 | 12070 ft | 295 kts | 222° |
| 2026-05-05 01:23 | 34.04209 | -83.89207 | 11708 ft | 293 kts | 222° |
| 2026-05-05 01:23 | 34.03189 | -83.90301 | 11467 ft | 291 kts | 222° |
| 2026-05-05 01:23 | 34.01182 | -83.92453 | 10985 ft | 290 kts | 222° |
| 2026-05-05 01:24 | 34.00192 | -83.93514 | 10747 ft | 289 kts | 222° |
| 2026-05-05 01:24 | 33.98168 | -83.95615 | 10265 ft | 286 kts | 214° |
| 2026-05-05 01:24 | 33.96366 | -83.96577 | 10113 ft | 286 kts | 194° |
| 2026-05-05 01:24 | 33.94368 | -83.96763 | 9983 ft | 287 kts | 180° |
| 2026-05-05 01:25 | 33.92371 | -83.96677 | 9642 ft | 288 kts | 179° |
| 2026-05-05 01:25 | 33.90387 | -83.96577 | 9304 ft | 284 kts | 179° |
| 2026-05-05 01:25 | 33.89055 | -83.96511 | 9084 ft | 282 kts | 179° |
| 2026-05-05 01:25 | 33.87138 | -83.96420 | 9021 ft | 268 kts | 179° |
| 2026-05-05 01:26 | 33.85469 | -83.96343 | 9001 ft | 256 kts | 179° |
| 2026-05-05 01:26 | 33.83654 | -83.96265 | 9000 ft | 256 kts | 179° |
| 2026-05-05 01:26 | 33.81961 | -83.96195 | 8995 ft | 255 kts | 179° |
| 2026-05-05 01:26 | 33.80215 | -83.96121 | 8821 ft | 249 kts | 179° |
| 2026-05-05 01:27 | 33.77931 | -83.96025 | 8483 ft | 244 kts | 180° |
| 2026-05-05 01:27 | 33.76242 | -83.96024 | 8180 ft | 241 kts | 187° |
| 2026-05-05 01:27 | 33.75130 | -83.96223 | 7973 ft | 240 kts | 194° |
| 2026-05-05 01:27 | 33.73040 | -83.97066 | 7563 ft | 238 kts | 203° |
| 2026-05-05 01:28 | 33.71517 | -83.97825 | 7251 ft | 237 kts | 204° |
| 2026-05-05 01:28 | 33.69986 | -83.98598 | 6959 ft | 236 kts | 204° |
| 2026-05-05 01:28 | 33.68984 | -83.99101 | 6771 ft | 236 kts | 203° |
| 2026-05-05 01:28 | 33.66979 | -84.00115 | 6422 ft | 232 kts | 207° |
| 2026-05-05 01:29 | 33.65722 | -84.01274 | 6186 ft | 227 kts | 232° |
| 2026-05-05 01:29 | 33.64997 | -84.02948 | 5888 ft | 226 kts | 256° |
| 2026-05-05 01:29 | 33.64848 | -84.04188 | 5702 ft | 226 kts | 266° |
| 2026-05-05 01:29 | 33.64895 | -84.06690 | 5359 ft | 226 kts | 271° |
| 2026-05-05 01:30 | 33.64949 | -84.07926 | 5264 ft | 224 kts | 271° |
| 2026-05-05 01:30 | 33.65020 | -84.10375 | 5227 ft | 217 kts | 269° |
| 2026-05-05 01:30 | 33.65036 | -84.11565 | 5218 ft | 214 kts | 268° |
| 2026-05-05 01:30 | 33.65042 | -84.13938 | 5161 ft | 209 kts | 268° |
| 2026-05-05 01:31 | 33.65035 | -84.15632 | 4922 ft | 200 kts | 267° |
| 2026-05-05 01:31 | 33.65024 | -84.17267 | 4690 ft | 194 kts | 267° |
| 2026-05-05 01:31 | 33.65012 | -84.18877 | 4443 ft | 192 kts | 267° |
| 2026-05-05 01:31 | 33.65003 | -84.20463 | 4186 ft | 185 kts | 266° |
| 2026-05-05 01:32 | 33.64995 | -84.21967 | 3943 ft | 177 kts | 266° |
| 2026-05-05 01:32 | 33.64990 | -84.23395 | 3697 ft | 164 kts | 266° |
| 2026-05-05 01:32 | 33.64984 | -84.24716 | 3496 ft | 159 kts | 266° |
| 2026-05-05 01:32 | 33.64981 | -84.25603 | 3370 ft | 159 kts | 265° |
| 2026-05-05 01:33 | 33.64975 | -84.27348 | 3155 ft | 158 kts | 265° |
| 2026-05-05 01:33 | 33.64973 | -84.28630 | 2943 ft | 153 kts | 265° |
| 2026-05-05 01:33 | 33.64970 | -84.29891 | 2747 ft | 152 kts | 265° |
| 2026-05-05 01:33 | 33.64967 | -84.31155 | 2549 ft | 152 kts | 266° |
| 2026-05-05 01:34 | 33.64964 | -84.32426 | 2348 ft | 152 kts | 267° |
| 2026-05-05 01:34 | 33.64962 | -84.33700 | 2147 ft | 152 kts | 267° |
| 2026-05-05 01:34 | 33.64962 | -84.34965 | 1968 ft | 152 kts | 268° |
| 2026-05-05 01:34 | 33.64964 | -84.36228 | 1755 ft | 151 kts | 268° |
| 2026-05-05 01:35 | 33.64949 | -84.37491 | 1510 ft | 150 kts | 267° |
| 2026-05-05 01:35 | 33.64950 | -84.38736 | 1394 ft | 151 kts | 269° |
| 2026-05-05 01:35 | 33.64949 | -84.40002 | 1179 ft | 152 kts | 269° |
| 2026-05-05 01:35 | 33.64955 | -84.41278 | 989 ft | 152 kts | 268° |
| 2026-05-05 01:36 | 33.64953 | -84.41688 | 980 ft | 143 kts | 266° |
| 2026-05-05 01:36 | 33.64946 | -84.43049 | 1002 ft | 48 kts | 261° |
| 2026-05-05 01:36 | 33.64907 | -84.43216 | 1005 ft | 9 kts | 250° |
| 2026-05-05 01:36 | 33.64900 | -84.43237 | 1006 ft | 0 kts | 248° |
| 2026-05-05 01:37 | 33.64895 | -84.43251 | 1006 ft | 8 kts | 246° |
| 2026-05-05 01:37 | 33.64864 | -84.43330 | 1007 ft | 10 kts | 249° |
| 2026-05-05 01:37 | 33.64848 | -84.43439 | 1010 ft | 15 kts | 267° |
| 2026-05-05 01:37 | 33.64803 | -84.43541 | 1012 ft | 13 kts | 212° |
| 2026-05-05 01:38 | 33.64722 | -84.43599 | 1013 ft | 13 kts | 210° |
| 2026-05-05 01:38 | 33.64645 | -84.43651 | 1014 ft | 12 kts | 210° |
| 2026-05-05 01:38 | 33.64570 | -84.43697 | 1015 ft | 12 kts | 199° |
| 2026-05-05 01:38 | 33.64488 | -84.43718 | 1016 ft | 12 kts | 186° |
| 2026-05-05 01:39 | 33.64402 | -84.43722 | 1016 ft | 12 kts | 180° |
| 2026-05-05 01:39 | 33.64314 | -84.43721 | 1016 ft | 12 kts | 180° |
| 2026-05-05 01:39 | 33.64222 | -84.43722 | 1016 ft | 13 kts | 180° |
| 2026-05-05 01:39 | 33.64129 | -84.43722 | 1016 ft | 13 kts | 180° |
| 2026-05-05 01:40 | 33.64032 | -84.43721 | 1016 ft | 14 kts | 180° |
| 2026-05-05 01:40 | 33.63953 | -84.43722 | 1016 ft | 9 kts | 176° |
| 2026-05-05 01:40 | 33.63923 | -84.43694 | 1016 ft | 5 kts | 104° |
| 2026-05-05 01:40 | 33.63921 | -84.43658 | 1015 ft | 3 kts | 90° |
| 2026-05-05 01:41 | 33.63921 | -84.43653 | 1015 ft | 0 kts | 90° |